sensor_id;sensor_type;location;lat;lon;timestamp;P1;durP1;ratioP1;P2;durP2;ratioP2
10311;SDS011;5201;48.776;9.128;2022-10-23T00:02:19;2.33;;;1.10;;
10311;SDS011;5201;48.776;9.128;2022-10-23T00:04:45;2.40;;;1.00;;
10311;SDS011;5201;48.776;9.128;2022-10-23T00:07:14;10.13;;;1.27;;
10311;SDS011;5201;48.776;9.128;2022-10-23T00:09:39;2.87;;;1.30;;
10311;SDS011;5201;48.776;9.128;2022-10-23T00:12:05;4.40;;;1.00;;
10311;SDS011;5201;48.776;9.128;2022-10-23T00:14:31;3.87;;;1.13;;
10311;SDS011;5201;48.776;9.128;2022-10-23T00:16:56;5.27;;;1.30;;
10311;SDS011;5201;48.776;9.128;2022-10-23T00:19:22;3.13;;;1.37;;
10311;SDS011;5201;48.776;9.128;2022-10-23T00:21:47;8.43;;;1.30;;
10311;SDS011;5201;48.776;9.128;2022-10-23T00:24:13;4.47;;;1.10;;
10311;SDS011;5201;48.776;9.128;2022-10-23T00:26:39;5.70;;;1.17;;
10311;SDS011;5201;48.776;9.128;2022-10-23T00:29:05;3.60;;;0.80;;
10311;SDS011;5201;48.776;9.128;2022-10-23T00:31:31;6.57;;;0.80;;
10311;SDS011;5201;48.776;9.128;2022-10-23T00:33:57;6.47;;;0.80;;
10311;SDS011;5201;48.776;9.128;2022-10-23T00:36:23;0.80;;;0.80;;
10311;SDS011;5201;48.776;9.128;2022-10-23T00:38:49;2.50;;;0.77;;
10311;SDS011;5201;48.776;9.128;2022-10-23T00:44:03;2.30;;;0.83;;
10311;SDS011;5201;48.776;9.128;2022-10-23T00:46:29;0.93;;;0.73;;
10311;SDS011;5201;48.776;9.128;2022-10-23T00:48:56;5.23;;;0.73;;
10311;SDS011;5201;48.776;9.128;2022-10-23T00:51:22;24.03;;;1.17;;
10311;SDS011;5201;48.776;9.128;2022-10-23T00:53:49;13.63;;;1.00;;
10311;SDS011;5201;48.776;9.128;2022-10-23T00:56:18;9.13;;;1.03;;
10311;SDS011;5201;48.776;9.128;2022-10-23T00:58:44;13.87;;;1.17;;
10311;SDS011;5201;48.776;9.128;2022-10-23T01:01:15;3.53;;;1.10;;
10311;SDS011;5201;48.776;9.128;2022-10-23T01:03:43;1.90;;;0.90;;
10311;SDS011;5201;48.776;9.128;2022-10-23T01:06:14;2.27;;;0.80;;
10311;SDS011;5201;48.776;9.128;2022-10-23T01:08:51;6.27;;;0.80;;
10311;SDS011;5201;48.776;9.128;2022-10-23T01:14:05;3.67;;;0.63;;
10311;SDS011;5201;48.776;9.128;2022-10-23T01:22:01;1.97;;;0.80;;
10311;SDS011;5201;48.776;9.128;2022-10-23T01:24:47;1.70;;;0.70;;
10311;SDS011;5201;48.776;9.128;2022-10-23T01:27:31;2.63;;;1.90;;
10311;SDS011;5201;48.776;9.128;2022-10-23T01:30:05;7.53;;;0.80;;
10311;SDS011;5201;48.776;9.128;2022-10-23T01:32:34;2.37;;;0.90;;
10311;SDS011;5201;48.776;9.128;2022-10-23T01:35:23;3.63;;;0.70;;
10311;SDS011;5201;48.776;9.128;2022-10-23T01:40:33;2.37;;;0.67;;
10311;SDS011;5201;48.776;9.128;2022-10-23T01:43:07;1.23;;;0.70;;
10311;SDS011;5201;48.776;9.128;2022-10-23T01:45:42;0.80;;;0.70;;
10311;SDS011;5201;48.776;9.128;2022-10-23T01:48:15;0.90;;;0.60;;
10311;SDS011;5201;48.776;9.128;2022-10-23T01:50:45;2.30;;;0.63;;
10311;SDS011;5201;48.776;9.128;2022-10-23T01:53:12;1.13;;;0.70;;
10311;SDS011;5201;48.776;9.128;2022-10-23T01:55:37;1.57;;;0.73;;
10311;SDS011;5201;48.776;9.128;2022-10-23T01:58:05;3.00;;;0.80;;
10311;SDS011;5201;48.776;9.128;2022-10-23T02:00:33;2.60;;;0.60;;
10311;SDS011;5201;48.776;9.128;2022-10-23T02:03:02;4.33;;;0.73;;
10311;SDS011;5201;48.776;9.128;2022-10-23T02:05:29;4.90;;;0.70;;
10311;SDS011;5201;48.776;9.128;2022-10-23T02:07:56;2.03;;;0.63;;
10311;SDS011;5201;48.776;9.128;2022-10-23T02:10:24;2.97;;;0.70;;
10311;SDS011;5201;48.776;9.128;2022-10-23T02:21:49;6.67;;;0.63;;
10311;SDS011;5201;48.776;9.128;2022-10-23T02:24:16;3.53;;;0.80;;
10311;SDS011;5201;48.776;9.128;2022-10-23T02:26:53;3.17;;;0.80;;
10311;SDS011;5201;48.776;9.128;2022-10-23T02:29:29;0.90;;;0.70;;
10311;SDS011;5201;48.776;9.128;2022-10-23T02:32:16;5.63;;;0.80;;
10311;SDS011;5201;48.776;9.128;2022-10-23T02:34:45;3.03;;;0.67;;
10311;SDS011;5201;48.776;9.128;2022-10-23T02:37:11;2.53;;;0.53;;
10311;SDS011;5201;48.776;9.128;2022-10-23T02:39:37;0.50;;;0.50;;
10311;SDS011;5201;48.776;9.128;2022-10-23T02:52:47;5.40;;;0.70;;
10311;SDS011;5201;48.776;9.128;2022-10-23T02:56:04;8.13;;;0.60;;
10311;SDS011;5201;48.776;9.128;2022-10-23T03:01:34;2.13;;;0.73;;
10311;SDS011;5201;48.776;9.128;2022-10-23T03:04:09;2.87;;;0.50;;
10311;SDS011;5201;48.776;9.128;2022-10-23T03:06:36;0.73;;;0.50;;
10311;SDS011;5201;48.776;9.128;2022-10-23T03:09:06;1.03;;;0.57;;
10311;SDS011;5201;48.776;9.128;2022-10-23T03:11:32;5.37;;;0.50;;
10311;SDS011;5201;48.776;9.128;2022-10-23T03:13:58;4.67;;;0.90;;
10311;SDS011;5201;48.776;9.128;2022-10-23T03:16:24;3.50;;;0.90;;
10311;SDS011;5201;48.776;9.128;2022-10-23T03:18:50;3.37;;;1.00;;
10311;SDS011;5201;48.776;9.128;2022-10-23T03:21:15;0.97;;;0.90;;
10311;SDS011;5201;48.776;9.128;2022-10-23T03:23:41;1.63;;;0.87;;
10311;SDS011;5201;48.776;9.128;2022-10-23T03:26:06;2.90;;;0.80;;
10311;SDS011;5201;48.776;9.128;2022-10-23T03:28:32;4.43;;;0.87;;
10311;SDS011;5201;48.776;9.128;2022-10-23T03:30:59;9.03;;;1.10;;
10311;SDS011;5201;48.776;9.128;2022-10-23T03:33:29;5.80;;;0.93;;
10311;SDS011;5201;48.776;9.128;2022-10-23T03:35:55;1.10;;;1.00;;
10311;SDS011;5201;48.776;9.128;2022-10-23T03:38:21;7.57;;;1.43;;
10311;SDS011;5201;48.776;9.128;2022-10-23T03:40:46;2.37;;;1.03;;
10311;SDS011;5201;48.776;9.128;2022-10-23T03:43:12;1.27;;;0.90;;
10311;SDS011;5201;48.776;9.128;2022-10-23T03:45:37;1.40;;;0.63;;
10311;SDS011;5201;48.776;9.128;2022-10-23T03:48:06;8.80;;;0.90;;
10311;SDS011;5201;48.776;9.128;2022-10-23T03:50:32;7.97;;;0.87;;
10311;SDS011;5201;48.776;9.128;2022-10-23T03:52:58;5.87;;;0.77;;
10311;SDS011;5201;48.776;9.128;2022-10-23T03:55:24;2.43;;;0.90;;
10311;SDS011;5201;48.776;9.128;2022-10-23T03:57:51;1.83;;;0.63;;
10311;SDS011;5201;48.776;9.128;2022-10-23T04:00:17;5.30;;;1.03;;
10311;SDS011;5201;48.776;9.128;2022-10-23T04:02:42;7.83;;;0.90;;
10311;SDS011;5201;48.776;9.128;2022-10-23T04:05:08;9.80;;;0.70;;
10311;SDS011;5201;48.776;9.128;2022-10-23T04:07:34;9.00;;;0.90;;
10311;SDS011;5201;48.776;9.128;2022-10-23T04:10:00;2.63;;;0.77;;
10311;SDS011;5201;48.776;9.128;2022-10-23T04:12:26;5.50;;;0.90;;
10311;SDS011;5201;48.776;9.128;2022-10-23T04:14:51;5.33;;;0.90;;
10311;SDS011;5201;48.776;9.128;2022-10-23T04:17:17;5.63;;;0.80;;
10311;SDS011;5201;48.776;9.128;2022-10-23T04:19:42;1.83;;;0.80;;
10311;SDS011;5201;48.776;9.128;2022-10-23T04:22:08;9.20;;;1.00;;
10311;SDS011;5201;48.776;9.128;2022-10-23T04:24:33;5.17;;;0.90;;
10311;SDS011;5201;48.776;9.128;2022-10-23T04:26:59;9.83;;;1.23;;
10311;SDS011;5201;48.776;9.128;2022-10-23T04:29:25;8.80;;;0.97;;
10311;SDS011;5201;48.776;9.128;2022-10-23T04:31:50;5.03;;;0.90;;
10311;SDS011;5201;48.776;9.128;2022-10-23T04:34:17;6.90;;;0.70;;
10311;SDS011;5201;48.776;9.128;2022-10-23T04:36:42;7.97;;;0.80;;
10311;SDS011;5201;48.776;9.128;2022-10-23T04:39:08;3.27;;;0.60;;
10311;SDS011;5201;48.776;9.128;2022-10-23T04:41:34;8.00;;;0.90;;
10311;SDS011;5201;48.776;9.128;2022-10-23T04:44:00;3.67;;;0.70;;
10311;SDS011;5201;48.776;9.128;2022-10-23T04:46:25;3.43;;;0.80;;
10311;SDS011;5201;48.776;9.128;2022-10-23T04:48:52;0.93;;;0.60;;
10311;SDS011;5201;48.776;9.128;2022-10-23T04:51:17;2.43;;;0.67;;
10311;SDS011;5201;48.776;9.128;2022-10-23T04:53:43;0.50;;;0.50;;
10311;SDS011;5201;48.776;9.128;2022-10-23T04:56:12;1.60;;;0.73;;
10311;SDS011;5201;48.776;9.128;2022-10-23T04:58:39;1.07;;;0.60;;
10311;SDS011;5201;48.776;9.128;2022-10-23T05:01:05;3.00;;;0.50;;
10311;SDS011;5201;48.776;9.128;2022-10-23T05:03:31;3.07;;;0.80;;
10311;SDS011;5201;48.776;9.128;2022-10-23T05:05:57;2.40;;;0.80;;
10311;SDS011;5201;48.776;9.128;2022-10-23T05:08:23;3.30;;;0.63;;
10311;SDS011;5201;48.776;9.128;2022-10-23T05:10:49;1.70;;;0.50;;
10311;SDS011;5201;48.776;9.128;2022-10-23T05:13:18;3.63;;;0.70;;
10311;SDS011;5201;48.776;9.128;2022-10-23T05:15:45;0.77;;;0.60;;
10311;SDS011;5201;48.776;9.128;2022-10-23T05:18:14;7.27;;;0.67;;
10311;SDS011;5201;48.776;9.128;2022-10-23T05:20:44;5.07;;;0.70;;
10311;SDS011;5201;48.776;9.128;2022-10-23T05:23:12;4.80;;;1.23;;
10311;SDS011;5201;48.776;9.128;2022-10-23T05:25:40;2.30;;;0.70;;
10311;SDS011;5201;48.776;9.128;2022-10-23T05:28:06;5.27;;;0.70;;
10311;SDS011;5201;48.776;9.128;2022-10-23T05:30:32;2.67;;;0.70;;
10311;SDS011;5201;48.776;9.128;2022-10-23T05:32:58;6.10;;;0.67;;
10311;SDS011;5201;48.776;9.128;2022-10-23T05:35:27;5.70;;;0.70;;
10311;SDS011;5201;48.776;9.128;2022-10-23T05:37:54;3.17;;;0.63;;
10311;SDS011;5201;48.776;9.128;2022-10-23T05:40:22;3.40;;;0.60;;
10311;SDS011;5201;48.776;9.128;2022-10-23T05:42:48;2.07;;;0.60;;
10311;SDS011;5201;48.776;9.128;2022-10-23T05:45:14;1.60;;;0.67;;
10311;SDS011;5201;48.776;9.128;2022-10-23T05:47:42;1.50;;;0.50;;
10311;SDS011;5201;48.776;9.128;2022-10-23T05:50:08;0.47;;;0.47;;
10311;SDS011;5201;48.776;9.128;2022-10-23T05:52:34;2.73;;;0.70;;
10311;SDS011;5201;48.776;9.128;2022-10-23T05:54:59;2.77;;;0.43;;
10311;SDS011;5201;48.776;9.128;2022-10-23T05:57:25;1.23;;;1.13;;
10311;SDS011;5201;48.776;9.128;2022-10-23T05:59:50;3.33;;;0.70;;
10311;SDS011;5201;48.776;9.128;2022-10-23T06:02:16;6.63;;;0.60;;
10311;SDS011;5201;48.776;9.128;2022-10-23T06:04:41;3.67;;;0.77;;
10311;SDS011;5201;48.776;9.128;2022-10-23T06:07:07;1.60;;;0.70;;
10311;SDS011;5201;48.776;9.128;2022-10-23T06:09:32;8.53;;;1.03;;
10311;SDS011;5201;48.776;9.128;2022-10-23T06:11:59;7.83;;;0.77;;
10311;SDS011;5201;48.776;9.128;2022-10-23T06:14:26;4.73;;;0.90;;
10311;SDS011;5201;48.776;9.128;2022-10-23T06:16:51;12.27;;;1.03;;
10311;SDS011;5201;48.776;9.128;2022-10-23T06:19:17;7.90;;;1.50;;
10311;SDS011;5201;48.776;9.128;2022-10-23T06:21:42;1.67;;;1.27;;
10311;SDS011;5201;48.776;9.128;2022-10-23T06:24:08;7.57;;;0.90;;
10311;SDS011;5201;48.776;9.128;2022-10-23T06:26:35;5.03;;;1.33;;
10311;SDS011;5201;48.776;9.128;2022-10-23T06:29:00;6.50;;;1.40;;
10311;SDS011;5201;48.776;9.128;2022-10-23T06:31:26;9.13;;;1.53;;
10311;SDS011;5201;48.776;9.128;2022-10-23T06:33:55;5.23;;;1.13;;
10311;SDS011;5201;48.776;9.128;2022-10-23T06:36:23;6.50;;;1.00;;
10311;SDS011;5201;48.776;9.128;2022-10-23T06:38:49;4.53;;;1.00;;
10311;SDS011;5201;48.776;9.128;2022-10-23T06:41:17;3.00;;;1.30;;
10311;SDS011;5201;48.776;9.128;2022-10-23T06:43:46;2.57;;;1.10;;
10311;SDS011;5201;48.776;9.128;2022-10-23T06:46:12;1.47;;;0.90;;
10311;SDS011;5201;48.776;9.128;2022-10-23T06:48:39;1.87;;;0.40;;
10311;SDS011;5201;48.776;9.128;2022-10-23T06:51:06;0.87;;;0.53;;
10311;SDS011;5201;48.776;9.128;2022-10-23T06:53:33;2.17;;;0.60;;
10311;SDS011;5201;48.776;9.128;2022-10-23T06:56:00;0.77;;;0.40;;
10311;SDS011;5201;48.776;9.128;2022-10-23T06:58:27;1.93;;;0.40;;
10311;SDS011;5201;48.776;9.128;2022-10-23T07:00:53;3.00;;;0.63;;
10311;SDS011;5201;48.776;9.128;2022-10-23T07:03:19;0.33;;;0.30;;
10311;SDS011;5201;48.776;9.128;2022-10-23T07:05:44;1.53;;;0.50;;
10311;SDS011;5201;48.776;9.128;2022-10-23T07:08:11;1.00;;;0.47;;
10311;SDS011;5201;48.776;9.128;2022-10-23T07:10:37;0.87;;;0.40;;
10311;SDS011;5201;48.776;9.128;2022-10-23T07:13:06;5.33;;;0.30;;
10311;SDS011;5201;48.776;9.128;2022-10-23T07:15:33;0.80;;;0.50;;
10311;SDS011;5201;48.776;9.128;2022-10-23T07:17:59;5.70;;;0.50;;
10311;SDS011;5201;48.776;9.128;2022-10-23T07:20:25;0.40;;;0.40;;
10311;SDS011;5201;48.776;9.128;2022-10-23T07:22:51;4.73;;;0.30;;
10311;SDS011;5201;48.776;9.128;2022-10-23T07:25:18;0.30;;;0.30;;
10311;SDS011;5201;48.776;9.128;2022-10-23T07:27:44;3.27;;;0.47;;
10311;SDS011;5201;48.776;9.128;2022-10-23T07:30:10;2.13;;;0.33;;
10311;SDS011;5201;48.776;9.128;2022-10-23T07:32:36;0.90;;;0.30;;
10311;SDS011;5201;48.776;9.128;2022-10-23T07:35:02;0.33;;;0.30;;
10311;SDS011;5201;48.776;9.128;2022-10-23T07:37:28;0.40;;;0.30;;
10311;SDS011;5201;48.776;9.128;2022-10-23T07:39:54;4.40;;;0.67;;
10311;SDS011;5201;48.776;9.128;2022-10-23T07:42:20;2.00;;;0.40;;
10311;SDS011;5201;48.776;9.128;2022-10-23T07:44:45;1.47;;;0.50;;
10311;SDS011;5201;48.776;9.128;2022-10-23T07:47:11;0.27;;;0.27;;
10311;SDS011;5201;48.776;9.128;2022-10-23T07:49:36;1.40;;;0.33;;
10311;SDS011;5201;48.776;9.128;2022-10-23T07:52:03;0.30;;;0.30;;
10311;SDS011;5201;48.776;9.128;2022-10-23T07:54:29;1.47;;;0.40;;
10311;SDS011;5201;48.776;9.128;2022-10-23T07:56:55;0.40;;;0.20;;
10311;SDS011;5201;48.776;9.128;2022-10-23T07:59:22;0.40;;;0.40;;
10311;SDS011;5201;48.776;9.128;2022-10-23T08:01:47;7.07;;;0.37;;
10311;SDS011;5201;48.776;9.128;2022-10-23T08:04:13;0.27;;;0.27;;
10311;SDS011;5201;48.776;9.128;2022-10-23T08:06:39;2.87;;;0.40;;
10311;SDS011;5201;48.776;9.128;2022-10-23T08:09:05;2.33;;;0.30;;
10311;SDS011;5201;48.776;9.128;2022-10-23T08:11:31;0.73;;;0.47;;
10311;SDS011;5201;48.776;9.128;2022-10-23T08:13:59;1.70;;;0.40;;
10311;SDS011;5201;48.776;9.128;2022-10-23T08:16:28;0.80;;;0.60;;
10311;SDS011;5201;48.776;9.128;2022-10-23T08:18:55;0.57;;;0.30;;
10311;SDS011;5201;48.776;9.128;2022-10-23T08:21:21;1.40;;;0.50;;
10311;SDS011;5201;48.776;9.128;2022-10-23T08:23:47;0.30;;;0.30;;
10311;SDS011;5201;48.776;9.128;2022-10-23T08:26:12;3.40;;;0.50;;
10311;SDS011;5201;48.776;9.128;2022-10-23T08:28:38;0.50;;;0.47;;
10311;SDS011;5201;48.776;9.128;2022-10-23T08:31:08;3.97;;;0.40;;
10311;SDS011;5201;48.776;9.128;2022-10-23T08:33:38;0.40;;;0.40;;
10311;SDS011;5201;48.776;9.128;2022-10-23T08:36:04;0.23;;;0.20;;
10311;SDS011;5201;48.776;9.128;2022-10-23T08:38:30;7.70;;;0.53;;
10311;SDS011;5201;48.776;9.128;2022-10-23T08:40:55;13.50;;;0.50;;
10311;SDS011;5201;48.776;9.128;2022-10-23T08:43:29;0.40;;;0.30;;
10311;SDS011;5201;48.776;9.128;2022-10-23T08:46:05;0.40;;;0.37;;
10311;SDS011;5201;48.776;9.128;2022-10-23T08:56:26;1.27;;;0.50;;
10311;SDS011;5201;48.776;9.128;2022-10-23T09:01:41;1.27;;;0.50;;
10311;SDS011;5201;48.776;9.128;2022-10-23T09:04:10;4.47;;;0.40;;
10311;SDS011;5201;48.776;9.128;2022-10-23T09:12:55;1.13;;;0.30;;
10311;SDS011;5201;48.776;9.128;2022-10-23T09:15:28;0.73;;;0.30;;
10311;SDS011;5201;48.776;9.128;2022-10-23T09:18:06;1.17;;;0.40;;
10311;SDS011;5201;48.776;9.128;2022-10-23T09:20:38;0.67;;;0.40;;
10311;SDS011;5201;48.776;9.128;2022-10-23T09:23:07;0.60;;;0.60;;
10311;SDS011;5201;48.776;9.128;2022-10-23T09:25:39;0.80;;;0.60;;
10311;SDS011;5201;48.776;9.128;2022-10-23T09:28:11;1.10;;;0.80;;
10311;SDS011;5201;48.776;9.128;2022-10-23T09:30:44;1.03;;;0.73;;
10311;SDS011;5201;48.776;9.128;2022-10-23T09:33:21;2.23;;;0.70;;
10311;SDS011;5201;48.776;9.128;2022-10-23T09:38:28;0.80;;;0.70;;
10311;SDS011;5201;48.776;9.128;2022-10-23T09:41:05;5.18;;;2.70;;
10311;SDS011;5201;48.776;9.128;2022-10-23T09:43:40;3.80;;;0.53;;
10311;SDS011;5201;48.776;9.128;2022-10-23T09:46:07;1.08;;;0.22;;
10311;SDS011;5201;48.776;9.128;2022-10-23T09:48:34;0.77;;;0.32;;
10311;SDS011;5201;48.776;9.128;2022-10-23T09:51:21;4.57;;;0.90;;
10311;SDS011;5201;48.776;9.128;2022-10-23T09:53:51;0.30;;;0.30;;
10311;SDS011;5201;48.776;9.128;2022-10-23T09:56:23;2.73;;;0.40;;
10311;SDS011;5201;48.776;9.128;2022-10-23T10:01:44;0.30;;;0.30;;
10311;SDS011;5201;48.776;9.128;2022-10-23T10:04:11;1.27;;;0.35;;
10311;SDS011;5201;48.776;9.128;2022-10-23T10:06:36;0.50;;;0.40;;
10311;SDS011;5201;48.776;9.128;2022-10-23T10:09:04;0.22;;;0.22;;
10311;SDS011;5201;48.776;9.128;2022-10-23T10:11:47;1.60;;;0.50;;
10311;SDS011;5201;48.776;9.128;2022-10-23T10:14:24;3.35;;;0.30;;
10311;SDS011;5201;48.776;9.128;2022-10-23T10:23:09;1.55;;;0.22;;
10311;SDS011;5201;48.776;9.128;2022-10-23T10:26:01;0.30;;;0.30;;
10311;SDS011;5201;48.776;9.128;2022-10-23T10:34:09;1.20;;;0.20;;
10311;SDS011;5201;48.776;9.128;2022-10-23T10:36:50;0.45;;;0.30;;
10311;SDS011;5201;48.776;9.128;2022-10-23T10:47:56;1.02;;;0.40;;
10311;SDS011;5201;48.776;9.128;2022-10-23T10:55:58;3.13;;;0.50;;
10311;SDS011;5201;48.776;9.128;2022-10-23T10:58:34;0.57;;;0.30;;
10311;SDS011;5201;48.776;9.128;2022-10-23T11:01:14;1.25;;;0.20;;
10311;SDS011;5201;48.776;9.128;2022-10-23T11:06:22;2.90;;;0.45;;
10311;SDS011;5201;48.776;9.128;2022-10-23T11:08:51;3.10;;;0.35;;
10311;SDS011;5201;48.776;9.128;2022-10-23T11:11:18;0.50;;;0.28;;
10311;SDS011;5201;48.776;9.128;2022-10-23T11:13:48;0.73;;;0.30;;
10311;SDS011;5201;48.776;9.128;2022-10-23T11:19:39;0.50;;;0.35;;
10311;SDS011;5201;48.776;9.128;2022-10-23T11:30:37;2.22;;;0.50;;
10311;SDS011;5201;48.776;9.128;2022-10-23T11:38:46;1.75;;;0.30;;
10311;SDS011;5201;48.776;9.128;2022-10-23T11:41:17;1.85;;;0.30;;
10311;SDS011;5201;48.776;9.128;2022-10-23T11:48:46;0.30;;;0.20;;
10311;SDS011;5201;48.776;9.128;2022-10-23T11:51:24;2.00;;;0.30;;
10311;SDS011;5201;48.776;9.128;2022-10-23T11:53:50;2.67;;;0.32;;
10311;SDS011;5201;48.776;9.128;2022-10-23T11:58:49;4.18;;;0.28;;
10311;SDS011;5201;48.776;9.128;2022-10-23T12:01:40;1.35;;;0.30;;
10311;SDS011;5201;48.776;9.128;2022-10-23T12:09:06;1.75;;;0.30;;
10311;SDS011;5201;48.776;9.128;2022-10-23T12:14:33;0.73;;;0.20;;
10311;SDS011;5201;48.776;9.128;2022-10-23T12:19:52;4.75;;;0.40;;
10311;SDS011;5201;48.776;9.128;2022-10-23T12:25:14;1.35;;;0.40;;
10311;SDS011;5201;48.776;9.128;2022-10-23T12:27:45;1.08;;;0.40;;
10311;SDS011;5201;48.776;9.128;2022-10-23T12:38:47;0.98;;;0.50;;
10311;SDS011;5201;48.776;9.128;2022-10-23T12:43:39;3.45;;;0.57;;
10311;SDS011;5201;48.776;9.128;2022-10-23T12:49:13;0.30;;;0.30;;
10311;SDS011;5201;48.776;9.128;2022-10-23T12:51:44;4.22;;;0.40;;
10311;SDS011;5201;48.776;9.128;2022-10-23T12:54:17;5.68;;;0.45;;
10311;SDS011;5201;48.776;9.128;2022-10-23T12:56:44;1.40;;;0.30;;
10311;SDS011;5201;48.776;9.128;2022-10-23T12:59:14;1.48;;;0.30;;
10311;SDS011;5201;48.776;9.128;2022-10-23T13:01:42;1.23;;;0.50;;
10311;SDS011;5201;48.776;9.128;2022-10-23T13:04:22;1.08;;;0.30;;
10311;SDS011;5201;48.776;9.128;2022-10-23T13:06:51;0.63;;;0.50;;
10311;SDS011;5201;48.776;9.128;2022-10-23T13:09:38;4.43;;;0.45;;
10311;SDS011;5201;48.776;9.128;2022-10-23T13:12:06;0.85;;;0.38;;
10311;SDS011;5201;48.776;9.128;2022-10-23T13:14:39;4.40;;;1.02;;
10311;SDS011;5201;48.776;9.128;2022-10-23T13:17:07;0.55;;;0.50;;
10311;SDS011;5201;48.776;9.128;2022-10-23T13:19:34;0.63;;;0.47;;
10311;SDS011;5201;48.776;9.128;2022-10-23T13:22:02;1.35;;;0.65;;
10311;SDS011;5201;48.776;9.128;2022-10-23T13:24:36;0.50;;;0.40;;
10311;SDS011;5201;48.776;9.128;2022-10-23T13:27:15;1.20;;;0.30;;
10311;SDS011;5201;48.776;9.128;2022-10-23T13:29:50;0.65;;;0.30;;
10311;SDS011;5201;48.776;9.128;2022-10-23T13:32:22;0.93;;;0.30;;
10311;SDS011;5201;48.776;9.128;2022-10-23T13:34:50;3.38;;;0.60;;
10311;SDS011;5201;48.776;9.128;2022-10-23T13:40:05;3.63;;;0.57;;
10311;SDS011;5201;48.776;9.128;2022-10-23T13:42:46;4.43;;;0.50;;
10311;SDS011;5201;48.776;9.128;2022-10-23T13:45:21;1.42;;;0.32;;
10311;SDS011;5201;48.776;9.128;2022-10-23T13:47:48;1.85;;;0.50;;
10311;SDS011;5201;48.776;9.128;2022-10-23T13:50:14;0.30;;;0.30;;
10311;SDS011;5201;48.776;9.128;2022-10-23T13:52:40;3.88;;;0.40;;
10311;SDS011;5201;48.776;9.128;2022-10-23T13:55:24;2.45;;;0.30;;
10311;SDS011;5201;48.776;9.128;2022-10-23T13:57:50;7.05;;;0.52;;
10311;SDS011;5201;48.776;9.128;2022-10-23T14:00:16;4.50;;;0.60;;
10311;SDS011;5201;48.776;9.128;2022-10-23T14:02:42;8.60;;;0.77;;
10311;SDS011;5201;48.776;9.128;2022-10-23T14:05:09;5.95;;;1.23;;
10311;SDS011;5201;48.776;9.128;2022-10-23T14:07:35;1.83;;;0.70;;
10311;SDS011;5201;48.776;9.128;2022-10-23T14:10:01;6.47;;;1.23;;
10311;SDS011;5201;48.776;9.128;2022-10-23T14:12:27;8.10;;;0.98;;
10311;SDS011;5201;48.776;9.128;2022-10-23T14:14:52;2.95;;;1.00;;
10311;SDS011;5201;48.776;9.128;2022-10-23T14:17:19;5.88;;;1.02;;
10311;SDS011;5201;48.776;9.128;2022-10-23T14:19:45;2.70;;;0.95;;
10311;SDS011;5201;48.776;9.128;2022-10-23T14:22:10;0.80;;;0.80;;
10311;SDS011;5201;48.776;9.128;2022-10-23T14:24:37;3.50;;;1.05;;
10311;SDS011;5201;48.776;9.128;2022-10-23T14:27:03;1.27;;;0.65;;
10311;SDS011;5201;48.776;9.128;2022-10-23T14:29:29;3.08;;;0.80;;
10311;SDS011;5201;48.776;9.128;2022-10-23T14:31:54;1.75;;;0.70;;
10311;SDS011;5201;48.776;9.128;2022-10-23T14:34:20;3.13;;;0.77;;
10311;SDS011;5201;48.776;9.128;2022-10-23T14:36:45;3.53;;;0.70;;
10311;SDS011;5201;48.776;9.128;2022-10-23T14:39:11;2.72;;;0.82;;
10311;SDS011;5201;48.776;9.128;2022-10-23T14:41:36;2.45;;;0.70;;
10311;SDS011;5201;48.776;9.128;2022-10-23T14:44:04;4.55;;;0.68;;
10311;SDS011;5201;48.776;9.128;2022-10-23T14:46:30;2.95;;;0.88;;
10311;SDS011;5201;48.776;9.128;2022-10-23T14:48:55;3.50;;;0.70;;
10311;SDS011;5201;48.776;9.128;2022-10-23T14:51:23;1.38;;;0.70;;
10311;SDS011;5201;48.776;9.128;2022-10-23T14:53:53;3.50;;;0.70;;
10311;SDS011;5201;48.776;9.128;2022-10-23T14:56:20;2.67;;;1.55;;
10311;SDS011;5201;48.776;9.128;2022-10-23T14:58:46;4.53;;;1.00;;
10311;SDS011;5201;48.776;9.128;2022-10-23T15:01:12;3.63;;;0.93;;
10311;SDS011;5201;48.776;9.128;2022-10-23T15:03:38;2.38;;;0.75;;
10311;SDS011;5201;48.776;9.128;2022-10-23T15:06:04;0.60;;;0.40;;
10311;SDS011;5201;48.776;9.128;2022-10-23T15:08:31;7.10;;;0.73;;
10311;SDS011;5201;48.776;9.128;2022-10-23T15:10:58;2.55;;;0.82;;
10311;SDS011;5201;48.776;9.128;2022-10-23T15:13:28;2.05;;;0.73;;
10311;SDS011;5201;48.776;9.128;2022-10-23T15:16:03;8.65;;;1.02;;
10311;SDS011;5201;48.776;9.128;2022-10-23T15:18:30;1.35;;;0.88;;
10311;SDS011;5201;48.776;9.128;2022-10-23T15:20:56;1.83;;;0.80;;
10311;SDS011;5201;48.776;9.128;2022-10-23T15:23:21;1.10;;;0.70;;
10311;SDS011;5201;48.776;9.128;2022-10-23T15:25:57;0.65;;;0.50;;
10311;SDS011;5201;48.776;9.128;2022-10-23T15:28:23;1.65;;;1.02;;
10311;SDS011;5201;48.776;9.128;2022-10-23T15:30:49;0.50;;;0.50;;
10311;SDS011;5201;48.776;9.128;2022-10-23T15:33:15;0.82;;;0.70;;
10311;SDS011;5201;48.776;9.128;2022-10-23T15:35:41;1.23;;;0.80;;
10311;SDS011;5201;48.776;9.128;2022-10-23T15:38:06;3.10;;;1.00;;
10311;SDS011;5201;48.776;9.128;2022-10-23T15:40:32;1.27;;;0.90;;
10311;SDS011;5201;48.776;9.128;2022-10-23T15:42:57;3.55;;;1.20;;
10311;SDS011;5201;48.776;9.128;2022-10-23T15:45:23;1.75;;;1.08;;
10311;SDS011;5201;48.776;9.128;2022-10-23T15:47:49;3.53;;;1.30;;
10311;SDS011;5201;48.776;9.128;2022-10-23T15:50:15;6.20;;;2.13;;
10311;SDS011;5201;48.776;9.128;2022-10-23T15:52:40;2.97;;;1.25;;
10311;SDS011;5201;48.776;9.128;2022-10-23T15:55:06;3.67;;;0.70;;
10311;SDS011;5201;48.776;9.128;2022-10-23T15:57:35;4.85;;;0.82;;
10311;SDS011;5201;48.776;9.128;2022-10-23T16:00:02;0.90;;;0.57;;
10311;SDS011;5201;48.776;9.128;2022-10-23T16:02:32;1.55;;;0.77;;
10311;SDS011;5201;48.776;9.128;2022-10-23T16:04:58;4.00;;;0.73;;
10311;SDS011;5201;48.776;9.128;2022-10-23T16:07:23;5.78;;;0.90;;
10311;SDS011;5201;48.776;9.128;2022-10-23T16:09:49;0.85;;;0.73;;
10311;SDS011;5201;48.776;9.128;2022-10-23T16:12:15;3.40;;;1.00;;
10311;SDS011;5201;48.776;9.128;2022-10-23T16:14:41;4.90;;;0.88;;
10311;SDS011;5201;48.776;9.128;2022-10-23T16:17:07;2.80;;;1.20;;
10311;SDS011;5201;48.776;9.128;2022-10-23T16:19:32;2.70;;;1.05;;
10311;SDS011;5201;48.776;9.128;2022-10-23T16:21:58;2.10;;;1.23;;
10311;SDS011;5201;48.776;9.128;2022-10-23T16:24:24;2.38;;;0.95;;
10311;SDS011;5201;48.776;9.128;2022-10-23T16:26:49;2.00;;;1.10;;
10311;SDS011;5201;48.776;9.128;2022-10-23T16:29:17;3.25;;;1.02;;
10311;SDS011;5201;48.776;9.128;2022-10-23T16:31:45;2.33;;;0.85;;
10311;SDS011;5201;48.776;9.128;2022-10-23T16:34:10;2.50;;;1.17;;
10311;SDS011;5201;48.776;9.128;2022-10-23T16:36:36;3.55;;;1.20;;
10311;SDS011;5201;48.776;9.128;2022-10-23T16:39:06;2.67;;;0.93;;
10311;SDS011;5201;48.776;9.128;2022-10-23T16:41:32;5.07;;;1.83;;
10311;SDS011;5201;48.776;9.128;2022-10-23T16:43:58;2.03;;;1.30;;
10311;SDS011;5201;48.776;9.128;2022-10-23T16:46:23;7.55;;;0.90;;
10311;SDS011;5201;48.776;9.128;2022-10-23T16:48:49;3.75;;;1.48;;
10311;SDS011;5201;48.776;9.128;2022-10-23T16:51:16;1.63;;;1.00;;
10311;SDS011;5201;48.776;9.128;2022-10-23T16:53:45;2.80;;;1.05;;
10311;SDS011;5201;48.776;9.128;2022-10-23T16:56:12;1.88;;;1.50;;
10311;SDS011;5201;48.776;9.128;2022-10-23T16:58:42;4.47;;;1.45;;
10311;SDS011;5201;48.776;9.128;2022-10-23T17:01:09;1.55;;;0.90;;
10311;SDS011;5201;48.776;9.128;2022-10-23T17:03:37;5.38;;;1.20;;
10311;SDS011;5201;48.776;9.128;2022-10-23T17:06:05;7.20;;;1.60;;
10311;SDS011;5201;48.776;9.128;2022-10-23T17:08:33;1.25;;;0.90;;
10311;SDS011;5201;48.776;9.128;2022-10-23T17:13:32;2.78;;;1.15;;
10311;SDS011;5201;48.776;9.128;2022-10-23T17:16:02;11.70;;;1.20;;
10311;SDS011;5201;48.776;9.128;2022-10-23T17:18:33;1.67;;;1.00;;
10311;SDS011;5201;48.776;9.128;2022-10-23T17:20:59;2.67;;;1.20;;
10311;SDS011;5201;48.776;9.128;2022-10-23T17:23:25;3.35;;;1.20;;
10311;SDS011;5201;48.776;9.128;2022-10-23T17:25:51;4.85;;;1.40;;
10311;SDS011;5201;48.776;9.128;2022-10-23T17:28:16;1.80;;;0.82;;
10311;SDS011;5201;48.776;9.128;2022-10-23T17:30:42;3.85;;;1.75;;
10311;SDS011;5201;48.776;9.128;2022-10-23T17:33:08;8.93;;;2.08;;